createdAt,value
2018-09-02T00:00:00.913Z,5.15
2018-09-02T00:00:13.341Z,5.15
2018-09-02T00:00:25.749Z,5.15
2018-09-02T00:00:38.195Z,5.15
2018-09-02T00:00:50.602Z,5.15
2018-09-02T00:01:03.015Z,5.15
2018-09-02T00:01:15.813Z,5.15
2018-09-02T00:01:28.248Z,5.15
2018-09-02T00:01:40.682Z,5.15
2018-09-02T00:01:53.094Z,5.15
2018-09-02T00:02:05.520Z,5.15
2018-09-02T00:02:17.963Z,5.15
2018-09-02T00:02:30.393Z,5.15
2018-09-02T00:02:42.801Z,5.15
2018-09-02T00:02:55.251Z,5.15
2018-09-02T00:03:07.670Z,5.15
2018-09-02T00:03:20.090Z,5.15
2018-09-02T00:03:32.497Z,5.15
2018-09-02T00:03:44.921Z,5.15
2018-09-02T00:03:57.324Z,5.15
2018-09-02T00:04:09.738Z,5.15
2018-09-02T00:04:22.201Z,5.15
2018-09-02T00:04:34.596Z,5.15
2018-09-02T00:04:47.011Z,5.15
2018-09-02T00:04:59.411Z,5.15
2018-09-02T00:05:11.848Z,5.15
2018-09-02T00:05:24.272Z,5.15
2018-09-02T00:05:36.671Z,5.15
2018-09-02T00:05:49.068Z,5.15
2018-09-02T00:06:01.459Z,5.15
2018-09-02T00:06:13.898Z,5.15
2018-09-02T00:06:26.335Z,5.15
2018-09-02T00:06:38.742Z,5.15
2018-09-02T00:06:51.144Z,5.15
2018-09-02T00:07:03.539Z,5.15
2018-09-02T00:07:15.945Z,5.15
2018-09-02T00:07:28.345Z,5.15
2018-09-02T00:07:40.762Z,6.8
2018-09-02T00:07:53.156Z,6.8
2018-09-02T00:08:05.567Z,6.8
2018-09-02T00:08:17.952Z,6.8
2018-09-02T00:08:30.353Z,6.8
2018-09-02T00:08:42.751Z,6.8
2018-09-02T00:08:55.192Z,6.8
2018-09-02T00:09:07.653Z,6.8
2018-09-02T00:09:20.086Z,6.8
2018-09-02T00:09:32.496Z,6.8
2018-09-02T00:09:44.976Z,6.8
2018-09-02T00:09:57.392Z,6.8
2018-09-02T00:10:09.829Z,6.8
2018-09-02T00:10:22.235Z,6.8
2018-09-02T00:10:34.772Z,6.8
2018-09-02T00:10:47.172Z,6.8
2018-09-02T00:10:59.580Z,6.8
2018-09-02T00:11:11.989Z,6.8
2018-09-02T00:11:24.393Z,6.8
2018-09-02T00:11:36.795Z,6.8
2018-09-02T00:11:49.418Z,6.8
2018-09-02T00:12:01.830Z,6.8
2018-09-02T00:12:14.252Z,6.8
2018-09-02T00:12:26.656Z,6.8
2018-09-02T00:12:39.191Z,6.8
2018-09-02T00:12:51.603Z,6.8
2018-09-02T00:13:04.034Z,6.8
2018-09-02T00:13:16.434Z,6.8
2018-09-02T00:13:28.919Z,6.8
2018-09-02T00:13:41.348Z,6.8
2018-09-02T00:13:53.774Z,6.8
2018-09-02T00:14:06.183Z,6.8
2018-09-02T00:14:18.634Z,6.8
2018-09-02T00:14:31.034Z,6.8
2018-09-02T00:14:43.443Z,6.8
2018-09-02T00:14:55.854Z,6.8
2018-09-02T00:15:08.266Z,6.8
2018-09-02T00:15:20.698Z,6.8
2018-09-02T00:15:33.098Z,6.8
2018-09-02T00:15:45.501Z,6.8
2018-09-02T00:15:57.909Z,6.8
2018-09-02T00:16:10.302Z,6.8
2018-09-02T00:16:22.694Z,6.8
2018-09-02T00:16:35.088Z,6.8
2018-09-02T00:16:47.564Z,6.8
2018-09-02T00:16:59.981Z,6.8
2018-09-02T00:17:12.393Z,6.8
2018-09-02T00:17:24.795Z,6.8
2018-09-02T00:17:37.206Z,4.75
2018-09-02T00:17:49.613Z,4.75
2018-09-02T00:18:02.027Z,4.75
2018-09-02T00:18:14.433Z,4.75
2018-09-02T00:18:26.844Z,4.75
2018-09-02T00:18:39.250Z,4.75
2018-09-02T00:18:51.661Z,4.75
2018-09-02T00:19:04.051Z,4.75
2018-09-02T00:19:16.469Z,4.75
2018-09-02T00:19:28.867Z,4.75
2018-09-02T00:19:41.443Z,4.75
2018-09-02T00:19:53.855Z,4.75
2018-09-02T00:20:06.264Z,4.75
2018-09-02T00:20:18.688Z,4.75
2018-09-02T00:20:31.778Z,4.75
2018-09-02T00:20:45.355Z,4.75
2018-09-02T00:20:57.776Z,4.75
2018-09-02T00:21:10.197Z,4.75
2018-09-02T00:21:22.608Z,4.75
2018-09-02T00:21:35.027Z,4.75
2018-09-02T00:21:47.426Z,4.75
2018-09-02T00:21:59.830Z,4.75
2018-09-02T00:22:12.218Z,4.75
2018-09-02T00:22:24.618Z,4.75
2018-09-02T00:22:37.023Z,4.75
2018-09-02T00:22:49.616Z,4.75
2018-09-02T00:23:02.181Z,4.75
2018-09-02T00:23:14.582Z,4.75
2018-09-02T00:23:27.016Z,4.75
2018-09-02T00:23:39.786Z,4.75
2018-09-02T00:23:52.220Z,4.75
2018-09-02T00:24:04.616Z,4.75
2018-09-02T00:24:17.016Z,4.75
2018-09-02T00:24:29.428Z,4.75
2018-09-02T00:24:41.841Z,4.75
2018-09-02T00:24:54.266Z,4.75
2018-09-02T00:25:06.686Z,4.75
2018-09-02T00:25:19.090Z,4.75
2018-09-02T00:25:31.820Z,4.75
2018-09-02T00:25:44.228Z,4.75
2018-09-02T00:25:56.674Z,4.75
2018-09-02T00:26:09.133Z,4.75
2018-09-02T00:26:21.535Z,4.75
2018-09-02T00:26:33.942Z,4.75
2018-09-02T00:26:46.358Z,4.75
2018-09-02T00:26:58.766Z,4.75
2018-09-02T00:27:11.194Z,4.75
2018-09-02T00:27:23.608Z,4.75
2018-09-02T00:27:36.010Z,5.37
2018-09-02T00:27:48.433Z,5.37
2018-09-02T00:28:00.846Z,5.37
2018-09-02T00:28:13.247Z,5.37
2018-09-02T00:28:25.643Z,5.37
2018-09-02T00:28:38.062Z,5.37
2018-09-02T00:28:50.521Z,5.37
2018-09-02T00:29:02.934Z,5.37
2018-09-02T00:29:15.335Z,5.37
2018-09-02T00:29:27.746Z,5.37
2018-09-02T00:29:40.159Z,5.37
2018-09-02T00:29:52.569Z,5.37
2018-09-02T00:30:04.968Z,5.37
2018-09-02T00:30:17.435Z,5.37
2018-09-02T00:30:30.282Z,5.37
2018-09-02T00:30:42.676Z,5.37
2018-09-02T00:30:55.096Z,5.37
2018-09-02T00:31:07.549Z,5.37
2018-09-02T00:31:19.957Z,5.37
2018-09-02T00:31:32.382Z,5.37
2018-09-02T00:31:44.938Z,5.37
2018-09-02T00:31:57.525Z,5.37
2018-09-02T00:32:09.932Z,5.37
2018-09-02T00:32:22.345Z,5.37
2018-09-02T00:32:34.743Z,5.37
2018-09-02T00:32:47.172Z,5.37
2018-09-02T00:33:00.112Z,5.37
2018-09-02T00:33:13.464Z,5.37
2018-09-02T00:33:27.235Z,5.37
2018-09-02T00:33:39.678Z,5.37
2018-09-02T00:33:53.518Z,5.37
2018-09-02T00:34:07.185Z,5.37
2018-09-02T00:34:19.608Z,5.37
2018-09-02T00:34:32.020Z,5.37
2018-09-02T00:34:44.424Z,5.37
2018-09-02T00:34:56.830Z,5.37
2018-09-02T00:35:09.455Z,5.37
2018-09-02T00:35:21.949Z,5.37
2018-09-02T00:35:34.361Z,5.37
2018-09-02T00:35:46.780Z,5.37
2018-09-02T00:35:59.203Z,5.37
2018-09-02T00:36:11.761Z,5.37
2018-09-02T00:36:24.230Z,5.37
2018-09-02T00:36:36.693Z,5.37
2018-09-02T00:36:49.267Z,5.37
2018-09-02T00:37:01.672Z,5.37
2018-09-02T00:37:14.093Z,5.37
2018-09-02T00:37:26.530Z,5.37
2018-09-02T00:37:38.963Z,5.52
2018-09-02T00:37:51.362Z,5.52
2018-09-02T00:38:03.785Z,5.52
2018-09-02T00:38:16.207Z,5.52
2018-09-02T00:38:28.625Z,5.52
2018-09-02T00:38:41.033Z,5.52
2018-09-02T00:38:53.452Z,5.52
2018-09-02T00:39:05.885Z,5.52
2018-09-02T00:39:18.299Z,5.52
2018-09-02T00:39:30.706Z,5.52
2018-09-02T00:39:43.105Z,5.52
2018-09-02T00:39:55.505Z,5.52
2018-09-02T00:40:07.977Z,5.52
2018-09-02T00:40:20.399Z,5.52
2018-09-02T00:40:32.819Z,5.52
2018-09-02T00:40:45.271Z,5.52
2018-09-02T00:40:57.674Z,5.52
2018-09-02T00:41:10.078Z,5.52
2018-09-02T00:41:22.994Z,5.52
2018-09-02T00:41:35.401Z,5.52
2018-09-02T00:41:47.797Z,5.52
2018-09-02T00:42:00.266Z,5.52
2018-09-02T00:42:12.988Z,5.52
2018-09-02T00:42:25.413Z,5.52
2018-09-02T00:42:37.858Z,5.52
2018-09-02T00:42:50.263Z,5.52
2018-09-02T00:43:02.675Z,5.52
2018-09-02T00:43:15.075Z,5.52
2018-09-02T00:43:27.478Z,5.52
2018-09-02T00:43:39.898Z,5.52
2018-09-02T00:43:52.302Z,5.52
2018-09-02T00:44:04.711Z,5.52
2018-09-02T00:44:17.107Z,5.52
2018-09-02T00:44:29.507Z,5.52
2018-09-02T00:44:41.904Z,5.52
2018-09-02T00:44:54.376Z,5.52
2018-09-02T00:45:06.777Z,5.52
2018-09-02T00:45:19.180Z,5.52
2018-09-02T00:45:31.562Z,5.52
2018-09-02T00:45:43.960Z,5.52
2018-09-02T00:45:56.352Z,5.52
2018-09-02T00:46:08.745Z,5.52
2018-09-02T00:46:21.174Z,5.52
2018-09-02T00:46:33.585Z,5.52
2018-09-02T00:46:46.015Z,5.52
2018-09-02T00:46:58.412Z,5.52
2018-09-02T00:47:10.840Z,5.52
2018-09-02T00:47:23.284Z,5.52
2018-09-02T00:47:35.700Z,7.85
2018-09-02T00:47:48.122Z,7.85
2018-09-02T00:48:00.567Z,7.85
2018-09-02T00:48:12.991Z,7.85
2018-09-02T00:48:25.379Z,7.85
2018-09-02T00:48:37.788Z,7.85
2018-09-02T00:48:50.185Z,7.85
2018-09-02T00:49:02.590Z,7.85
2018-09-02T00:49:15.091Z,7.85
2018-09-02T00:49:27.514Z,7.85
2018-09-02T00:49:39.933Z,7.85
2018-09-02T00:49:52.385Z,7.85
2018-09-02T00:50:04.807Z,7.85
2018-09-02T00:50:17.213Z,7.85
2018-09-02T00:50:29.607Z,7.85
2018-09-02T00:50:42.070Z,7.85
2018-09-02T00:50:54.480Z,7.85
2018-09-02T00:51:06.878Z,7.85
2018-09-02T00:51:19.312Z,7.85
2018-09-02T00:51:31.735Z,7.85
2018-09-02T00:51:44.144Z,7.85
2018-09-02T00:51:56.568Z,7.85
2018-09-02T00:52:08.973Z,7.85
2018-09-02T00:52:21.363Z,7.85
2018-09-02T00:52:33.762Z,7.85
2018-09-02T00:52:46.172Z,7.85
2018-09-02T00:52:58.573Z,7.85
2018-09-02T00:53:11.198Z,7.85
2018-09-02T00:53:23.603Z,7.85
2018-09-02T00:53:36.015Z,7.85
2018-09-02T00:53:48.434Z,7.85
2018-09-02T00:54:00.856Z,7.85
2018-09-02T00:54:13.318Z,7.85
2018-09-02T00:54:25.730Z,7.85
2018-09-02T00:54:38.126Z,7.85
2018-09-02T00:54:50.548Z,7.85
2018-09-02T00:55:02.964Z,7.85
2018-09-02T00:55:15.377Z,7.85
2018-09-02T00:55:27.765Z,7.85
2018-09-02T00:55:40.187Z,7.85
2018-09-02T00:55:52.601Z,7.85
2018-09-02T00:56:04.995Z,7.85
2018-09-02T00:56:17.408Z,7.85
2018-09-02T00:56:29.804Z,7.85
2018-09-02T00:56:42.220Z,7.85
2018-09-02T00:56:55.064Z,7.85
2018-09-02T00:57:07.507Z,7.85
2018-09-02T00:57:19.947Z,7.85
2018-09-02T00:57:32.365Z,7.85
2018-09-02T00:57:44.766Z,4.24
2018-09-02T00:57:57.205Z,4.24
2018-09-02T00:58:09.615Z,4.24
2018-09-02T00:58:22.046Z,4.24
2018-09-02T00:58:34.490Z,4.24
2018-09-02T00:58:46.939Z,4.24
2018-09-02T00:58:59.402Z,4.24
2018-09-02T00:59:11.828Z,4.24
2018-09-02T00:59:24.244Z,4.24
2018-09-02T00:59:36.659Z,4.24
2018-09-02T00:59:49.084Z,4.24
2018-09-02T01:00:01.493Z,4.24
2018-09-02T01:00:13.932Z,4.24
2018-09-02T01:00:26.375Z,4.24
2018-09-02T01:00:38.830Z,4.24
2018-09-02T01:00:51.272Z,4.24
2018-09-02T01:01:03.716Z,4.24
2018-09-02T01:01:16.332Z,4.24
2018-09-02T01:01:28.750Z,4.24
2018-09-02T01:01:41.172Z,4.24
2018-09-02T01:01:53.605Z,4.24
2018-09-02T01:02:06.026Z,4.24
2018-09-02T01:02:18.527Z,4.24
2018-09-02T01:02:30.961Z,4.24
2018-09-02T01:02:43.380Z,4.24
2018-09-02T01:02:55.921Z,4.24
2018-09-02T01:03:08.336Z,4.24
2018-09-02T01:03:20.737Z,4.24
2018-09-02T01:03:33.145Z,4.24
2018-09-02T01:03:45.715Z,4.24
2018-09-02T01:03:58.133Z,4.24
2018-09-02T01:04:10.549Z,4.24
2018-09-02T01:04:22.974Z,4.24
2018-09-02T01:04:35.380Z,4.24
2018-09-02T01:04:47.792Z,4.24
2018-09-02T01:05:00.213Z,4.24
2018-09-02T01:05:12.621Z,4.24
2018-09-02T01:05:25.033Z,4.24
2018-09-02T01:05:37.443Z,4.24
2018-09-02T01:05:49.857Z,4.24
2018-09-02T01:06:02.273Z,4.24
2018-09-02T01:06:14.727Z,4.24
2018-09-02T01:06:27.142Z,4.24
2018-09-02T01:06:39.538Z,4.24
2018-09-02T01:06:52.016Z,4.24
2018-09-02T01:07:04.402Z,4.24
2018-09-02T01:07:16.824Z,4.24
2018-09-02T01:07:29.250Z,4.24
2018-09-02T01:07:41.662Z,5.44
2018-09-02T01:07:54.086Z,5.44
2018-09-02T01:08:06.476Z,5.44
2018-09-02T01:08:18.864Z,5.44
2018-09-02T01:08:31.264Z,5.44
2018-09-02T01:08:43.651Z,5.44
2018-09-02T01:08:56.044Z,5.44
2018-09-02T01:09:08.519Z,5.44
2018-09-02T01:09:20.973Z,5.44
2018-09-02T01:09:33.404Z,5.44
2018-09-02T01:09:45.811Z,5.44
2018-09-02T01:09:58.231Z,5.44
2018-09-02T01:10:10.653Z,5.44
2018-09-02T01:10:23.058Z,5.44
2018-09-02T01:10:35.538Z,5.44
2018-09-02T01:10:47.956Z,5.44
2018-09-02T01:11:00.353Z,5.44
2018-09-02T01:11:12.758Z,5.44
2018-09-02T01:11:25.160Z,5.44
2018-09-02T01:11:37.559Z,5.44
2018-09-02T01:11:50.132Z,5.44
2018-09-02T01:12:02.540Z,5.44
2018-09-02T01:12:14.951Z,5.44
2018-09-02T01:12:27.351Z,5.44
2018-09-02T01:12:39.760Z,5.44
2018-09-02T01:12:52.328Z,5.44
2018-09-02T01:13:04.755Z,5.44
2018-09-02T01:13:17.150Z,5.44
2018-09-02T01:13:29.580Z,5.44
2018-09-02T01:13:41.986Z,5.44
2018-09-02T01:13:54.395Z,5.44
2018-09-02T01:14:06.801Z,5.44
2018-09-02T01:14:19.206Z,5.44
2018-09-02T01:14:31.715Z,5.44
2018-09-02T01:14:44.145Z,5.44
2018-09-02T01:14:56.584Z,5.44
2018-09-02T01:15:08.980Z,5.44
2018-09-02T01:15:21.379Z,5.44
2018-09-02T01:15:33.789Z,5.44
2018-09-02T01:15:46.184Z,5.44
2018-09-02T01:15:58.590Z,5.44
2018-09-02T01:16:10.991Z,5.44
2018-09-02T01:16:23.400Z,5.44
2018-09-02T01:16:35.818Z,5.44
2018-09-02T01:16:48.227Z,5.44
2018-09-02T01:17:00.648Z,5.44
2018-09-02T01:17:13.057Z,5.44
2018-09-02T01:17:25.468Z,5.44
2018-09-02T01:17:37.860Z,5.1
2018-09-02T01:17:50.416Z,5.1
2018-09-02T01:18:02.826Z,5.1
2018-09-02T01:18:15.249Z,5.1
2018-09-02T01:18:27.660Z,5.1
2018-09-02T01:18:40.072Z,5.1
2018-09-02T01:18:52.492Z,5.1
2018-09-02T01:19:04.900Z,5.1
2018-09-02T01:19:17.333Z,5.1
2018-09-02T01:19:29.737Z,5.1
2018-09-02T01:19:42.239Z,5.1
2018-09-02T01:19:54.674Z,5.1
2018-09-02T01:20:07.116Z,5.1
2018-09-02T01:20:19.562Z,5.1
2018-09-02T01:20:31.970Z,5.1
2018-09-02T01:20:44.391Z,5.1
2018-09-02T01:20:56.786Z,5.1
2018-09-02T01:21:09.387Z,5.1
2018-09-02T01:21:21.804Z,5.1
2018-09-02T01:21:34.212Z,5.1
2018-09-02T01:21:46.623Z,5.1
2018-09-02T01:21:59.051Z,5.1
2018-09-02T01:22:11.447Z,5.1
2018-09-02T01:22:23.879Z,5.1
2018-09-02T01:22:36.283Z,5.1
2018-09-02T01:22:48.853Z,5.1
2018-09-02T01:23:01.806Z,5.1
2018-09-02T01:23:15.848Z,5.1
2018-09-02T01:23:28.337Z,5.1
2018-09-02T01:23:41.084Z,5.1
2018-09-02T01:23:53.490Z,5.1
2018-09-02T01:24:05.900Z,5.1
2018-09-02T01:24:18.309Z,5.1
2018-09-02T01:24:30.748Z,5.1
2018-09-02T01:24:43.141Z,5.1
2018-09-02T01:24:55.548Z,5.1
2018-09-02T01:25:07.947Z,5.1
2018-09-02T01:25:20.355Z,5.1
2018-09-02T01:25:33.073Z,5.1
2018-09-02T01:25:45.503Z,5.1
2018-09-02T01:25:57.940Z,5.1
2018-09-02T01:26:10.340Z,5.1
2018-09-02T01:26:22.754Z,5.1
2018-09-02T01:26:35.174Z,5.1
2018-09-02T01:26:47.590Z,5.1
2018-09-02T01:26:59.991Z,5.1
2018-09-02T01:27:12.479Z,5.1
2018-09-02T01:27:24.897Z,5.1
2018-09-02T01:27:37.359Z,5.71
2018-09-02T01:27:49.741Z,5.71
2018-09-02T01:28:02.138Z,5.71
2018-09-02T01:28:14.546Z,5.71
2018-09-02T01:28:26.951Z,5.71
2018-09-02T01:28:39.403Z,5.71
2018-09-02T01:28:51.832Z,5.71
2018-09-02T01:29:04.228Z,5.71
2018-09-02T01:29:16.690Z,5.71
2018-09-02T01:29:29.162Z,5.71
2018-09-02T01:29:41.576Z,5.71
2018-09-02T01:29:53.978Z,5.71
2018-09-02T01:30:06.399Z,5.71
2018-09-02T01:30:18.833Z,5.71
2018-09-02T01:30:31.262Z,5.71
2018-09-02T01:30:43.668Z,5.71
2018-09-02T01:30:56.140Z,5.71
2018-09-02T01:31:08.534Z,5.71
2018-09-02T01:31:20.940Z,5.71
2018-09-02T01:31:33.386Z,5.71
2018-09-02T01:31:45.859Z,5.71
2018-09-02T01:31:58.411Z,5.71
2018-09-02T01:32:10.812Z,5.71
2018-09-02T01:32:23.384Z,5.71
2018-09-02T01:32:35.821Z,5.71
2018-09-02T01:32:48.211Z,5.71
2018-09-02T01:33:00.628Z,5.71
2018-09-02T01:33:13.042Z,5.71
2018-09-02T01:33:25.474Z,5.71
2018-09-02T01:33:37.900Z,5.71
2018-09-02T01:33:50.327Z,5.71
2018-09-02T01:34:02.742Z,5.71
2018-09-02T01:34:15.247Z,5.71
2018-09-02T01:34:27.688Z,5.71
2018-09-02T01:34:40.113Z,5.71
2018-09-02T01:34:52.528Z,5.71
2018-09-02T01:35:04.943Z,5.71
2018-09-02T01:35:17.378Z,5.71
2018-09-02T01:35:29.819Z,5.71
2018-09-02T01:35:42.254Z,5.71
2018-09-02T01:35:54.676Z,5.71
2018-09-02T01:36:07.077Z,5.71
2018-09-02T01:36:19.639Z,5.71
2018-09-02T01:36:32.043Z,5.71
2018-09-02T01:36:44.535Z,5.71
2018-09-02T01:36:56.946Z,5.71
2018-09-02T01:37:09.382Z,5.71
2018-09-02T01:37:21.784Z,5.71
2018-09-02T01:37:34.181Z,5.71
2018-09-02T01:37:46.581Z,8.62
2018-09-02T01:37:58.990Z,8.62
2018-09-02T01:38:11.408Z,8.62
2018-09-02T01:38:23.834Z,8.62
2018-09-02T01:38:36.232Z,8.62
2018-09-02T01:38:48.640Z,8.62
2018-09-02T01:39:01.037Z,8.62
2018-09-02T01:39:13.465Z,8.62
2018-09-02T01:39:25.912Z,8.62
2018-09-02T01:39:38.303Z,8.62
2018-09-02T01:39:50.696Z,8.62
2018-09-02T01:40:03.112Z,8.62
2018-09-02T01:40:15.537Z,8.62
2018-09-02T01:40:27.935Z,8.62
2018-09-02T01:40:40.335Z,8.62
2018-09-02T01:40:52.750Z,8.62
2018-09-02T01:41:05.149Z,8.62
2018-09-02T01:41:17.732Z,8.62
2018-09-02T01:41:30.128Z,8.62
2018-09-02T01:41:42.544Z,8.62
2018-09-02T01:41:54.962Z,8.62
2018-09-02T01:42:07.428Z,8.62
2018-09-02T01:42:19.989Z,8.62
2018-09-02T01:42:32.401Z,8.62
2018-09-02T01:42:44.838Z,8.62
2018-09-02T01:42:57.300Z,8.62
2018-09-02T01:43:09.718Z,8.62
2018-09-02T01:43:22.145Z,8.62
2018-09-02T01:43:34.587Z,8.62
2018-09-02T01:43:46.998Z,8.62
2018-09-02T01:43:59.407Z,8.62
2018-09-02T01:44:11.843Z,8.62
2018-09-02T01:44:24.280Z,8.62
2018-09-02T01:44:36.717Z,8.62
2018-09-02T01:44:49.135Z,8.62
2018-09-02T01:45:01.550Z,8.62
2018-09-02T01:45:14.054Z,8.62
2018-09-02T01:45:26.467Z,8.62
2018-09-02T01:45:38.944Z,8.62
2018-09-02T01:45:51.381Z,8.62
2018-09-02T01:46:03.788Z,8.62
2018-09-02T01:46:16.206Z,8.62
2018-09-02T01:46:28.652Z,8.62
2018-09-02T01:46:41.054Z,8.62
2018-09-02T01:46:53.514Z,8.62
2018-09-02T01:47:05.914Z,8.62
2018-09-02T01:47:18.322Z,8.62
2018-09-02T01:47:30.731Z,8.62
2018-09-02T01:47:43.138Z,8.65
2018-09-02T01:47:55.544Z,8.65
2018-09-02T01:48:07.970Z,8.65
2018-09-02T01:48:20.382Z,8.65
2018-09-02T01:48:32.794Z,8.65
2018-09-02T01:48:45.229Z,8.65
2018-09-02T01:48:57.689Z,8.65
2018-09-02T01:49:10.499Z,8.65
2018-09-02T01:49:22.902Z,8.65
2018-09-02T01:49:35.297Z,8.65
2018-09-02T01:49:47.730Z,8.65
2018-09-02T01:50:00.141Z,8.65
2018-09-02T01:50:12.573Z,8.65
2018-09-02T01:50:24.980Z,8.65
2018-09-02T01:50:37.377Z,8.65
2018-09-02T01:50:49.773Z,8.65
2018-09-02T01:51:02.175Z,8.65
2018-09-02T01:51:14.580Z,8.65
2018-09-02T01:51:26.986Z,8.65
2018-09-02T01:51:39.396Z,8.65
2018-09-02T01:51:51.816Z,8.65
2018-09-02T01:52:04.248Z,8.65
2018-09-02T01:52:16.654Z,8.65
2018-09-02T01:52:29.053Z,8.65
2018-09-02T01:52:41.452Z,8.65
2018-09-02T01:52:53.851Z,8.65
2018-09-02T01:53:06.268Z,8.65
2018-09-02T01:53:18.681Z,8.65
2018-09-02T01:53:31.086Z,8.65
2018-09-02T01:53:43.504Z,8.65
2018-09-02T01:53:55.899Z,8.65
2018-09-02T01:54:08.337Z,8.65
2018-09-02T01:54:20.719Z,8.65
2018-09-02T01:54:33.143Z,8.65
2018-09-02T01:54:45.559Z,8.65
2018-09-02T01:54:57.955Z,8.65
2018-09-02T01:55:10.366Z,8.65
2018-09-02T01:55:22.767Z,8.65
2018-09-02T01:55:35.168Z,8.65
2018-09-02T01:55:47.554Z,8.65
2018-09-02T01:55:59.947Z,8.65
2018-09-02T01:56:12.346Z,8.65
2018-09-02T01:56:24.740Z,8.65
2018-09-02T01:56:37.241Z,8.65
2018-09-02T01:56:49.930Z,8.65
2018-09-02T01:57:02.359Z,8.65
2018-09-02T01:57:14.756Z,8.65
2018-09-02T01:57:27.167Z,8.65
2018-09-02T01:57:39.623Z,6.5
2018-09-02T01:57:52.036Z,6.5
2018-09-02T01:58:04.458Z,6.5
2018-09-02T01:58:16.854Z,6.5
2018-09-02T01:58:29.255Z,6.5
2018-09-02T01:58:41.655Z,6.5
2018-09-02T01:58:54.068Z,6.5
2018-09-02T01:59:06.482Z,6.5
2018-09-02T01:59:18.891Z,6.5
2018-09-02T01:59:31.319Z,6.5
2018-09-02T01:59:43.725Z,6.5
2018-09-02T01:59:56.151Z,6.5
2018-09-02T02:00:08.559Z,6.5
2018-09-02T02:00:20.981Z,6.5
2018-09-02T02:00:33.392Z,6.5
2018-09-02T02:00:45.805Z,6.5
2018-09-02T02:00:58.247Z,6.5
2018-09-02T02:01:10.803Z,6.5
2018-09-02T02:01:23.229Z,6.5
2018-09-02T02:01:35.722Z,6.5
2018-09-02T02:01:48.147Z,6.5
2018-09-02T02:02:00.556Z,6.5
2018-09-02T02:02:12.976Z,6.5
2018-09-02T02:02:25.413Z,6.5
2018-09-02T02:02:37.818Z,6.5
2018-09-02T02:02:50.324Z,6.5
2018-09-02T02:03:02.756Z,6.5
2018-09-02T02:03:15.173Z,6.5
2018-09-02T02:03:27.577Z,6.5
2018-09-02T02:03:39.983Z,6.5
2018-09-02T02:03:52.408Z,6.5
2018-09-02T02:04:04.817Z,6.5
2018-09-02T02:04:17.224Z,6.5
2018-09-02T02:04:29.633Z,6.5
2018-09-02T02:04:42.039Z,6.5
2018-09-02T02:04:54.479Z,6.5
2018-09-02T02:05:06.917Z,6.5
2018-09-02T02:05:19.325Z,6.5
2018-09-02T02:05:31.716Z,6.5
2018-09-02T02:05:44.126Z,6.5
2018-09-02T02:05:56.553Z,6.5
2018-09-02T02:06:08.960Z,6.5
2018-09-02T02:06:21.392Z,6.5
2018-09-02T02:06:33.794Z,6.5
2018-09-02T02:06:46.196Z,6.5
2018-09-02T02:06:58.647Z,6.5
2018-09-02T02:07:11.045Z,6.5
2018-09-02T02:07:23.449Z,6.5
2018-09-02T02:07:35.865Z,6.5
2018-09-02T02:07:48.272Z,6.44
2018-09-02T02:08:00.731Z,6.44
2018-09-02T02:08:13.153Z,6.44
2018-09-02T02:08:25.560Z,6.44
2018-09-02T02:08:38.057Z,6.44
2018-09-02T02:08:50.466Z,6.44
2018-09-02T02:09:02.888Z,6.44
2018-09-02T02:09:15.304Z,6.44
2018-09-02T02:09:27.707Z,6.44
2018-09-02T02:09:40.123Z,6.44
2018-09-02T02:09:52.543Z,6.44
2018-09-02T02:10:04.935Z,6.44
2018-09-02T02:10:17.342Z,6.44
2018-09-02T02:10:29.744Z,6.44
2018-09-02T02:10:42.141Z,6.44
2018-09-02T02:10:54.557Z,6.44
2018-09-02T02:11:06.970Z,6.44
2018-09-02T02:11:19.386Z,6.44
2018-09-02T02:11:31.811Z,6.44
2018-09-02T02:11:44.396Z,6.44
2018-09-02T02:11:56.799Z,6.44
2018-09-02T02:12:09.204Z,6.44
2018-09-02T02:12:21.614Z,6.44
2018-09-02T02:12:34.081Z,6.44
2018-09-02T02:12:46.613Z,6.44
2018-09-02T02:12:59.041Z,6.44
2018-09-02T02:13:11.445Z,6.44
2018-09-02T02:13:23.847Z,6.44
2018-09-02T02:13:36.255Z,6.44
2018-09-02T02:13:48.671Z,6.44
2018-09-02T02:14:01.071Z,6.44
2018-09-02T02:14:13.494Z,6.44
2018-09-02T02:14:25.953Z,6.44
2018-09-02T02:14:38.370Z,6.44
2018-09-02T02:14:50.776Z,6.44
2018-09-02T02:15:03.217Z,6.44
2018-09-02T02:15:15.624Z,6.44
2018-09-02T02:15:28.035Z,6.44
2018-09-02T02:15:40.519Z,6.44
2018-09-02T02:15:52.950Z,6.44
2018-09-02T02:16:05.376Z,6.44
2018-09-02T02:16:17.851Z,6.44
2018-09-02T02:16:30.261Z,6.44
2018-09-02T02:16:42.680Z,6.44
2018-09-02T02:16:55.085Z,6.44
2018-09-02T02:17:07.489Z,6.44
2018-09-02T02:17:19.892Z,6.44
2018-09-02T02:17:32.293Z,6.44
2018-09-02T02:17:44.699Z,6.75
2018-09-02T02:17:57.102Z,6.75
2018-09-02T02:18:09.501Z,6.75
2018-09-02T02:18:21.960Z,6.75
2018-09-02T02:18:34.432Z,6.75
2018-09-02T02:18:46.909Z,6.75
2018-09-02T02:18:59.304Z,6.75
2018-09-02T02:19:11.739Z,6.75
2018-09-02T02:19:24.141Z,6.75
2018-09-02T02:19:36.624Z,6.75
2018-09-02T02:19:49.031Z,6.75
2018-09-02T02:20:01.446Z,6.75
2018-09-02T02:20:13.863Z,6.75
2018-09-02T02:20:26.264Z,6.75
2018-09-02T02:20:38.692Z,6.75
2018-09-02T02:20:51.100Z,6.75
2018-09-02T02:21:03.518Z,6.75
2018-09-02T02:21:15.994Z,6.75
2018-09-02T02:21:28.402Z,6.75
2018-09-02T02:21:40.803Z,6.75
2018-09-02T02:21:53.216Z,6.75
2018-09-02T02:22:05.624Z,6.75
2018-09-02T02:22:18.032Z,6.75
2018-09-02T02:22:30.442Z,6.75
2018-09-02T02:22:42.838Z,6.75
2018-09-02T02:22:55.279Z,6.75
2018-09-02T02:23:07.694Z,6.75
2018-09-02T02:23:20.103Z,6.75
2018-09-02T02:23:32.694Z,6.75
2018-09-02T02:23:45.106Z,6.75
2018-09-02T02:23:57.513Z,6.75
2018-09-02T02:24:10.104Z,6.75
2018-09-02T02:24:22.498Z,6.75
2018-09-02T02:24:34.911Z,6.75
2018-09-02T02:24:47.309Z,6.75
2018-09-02T02:24:59.699Z,6.75
2018-09-02T02:25:12.149Z,6.75
2018-09-02T02:25:24.550Z,6.75
2018-09-02T02:25:37.267Z,6.75
2018-09-02T02:25:49.667Z,6.75
2018-09-02T02:26:02.142Z,6.75
2018-09-02T02:26:14.558Z,6.75
2018-09-02T02:26:26.961Z,6.75
2018-09-02T02:26:39.358Z,6.75
2018-09-02T02:26:51.767Z,6.75
2018-09-02T02:27:04.185Z,6.75
2018-09-02T02:27:16.595Z,6.75
2018-09-02T02:27:28.992Z,6.75
2018-09-02T02:27:41.484Z,5.8
2018-09-02T02:27:53.902Z,5.8
2018-09-02T02:28:06.308Z,5.8
2018-09-02T02:28:18.721Z,5.8
2018-09-02T02:28:31.125Z,5.8
2018-09-02T02:28:43.517Z,5.8
2018-09-02T02:28:55.963Z,5.8
2018-09-02T02:29:08.396Z,5.8
2018-09-02T02:29:20.820Z,5.8
2018-09-02T02:29:33.229Z,5.8
2018-09-02T02:29:45.653Z,5.8
2018-09-02T02:29:58.049Z,5.8
2018-09-02T02:30:10.506Z,5.8
2018-09-02T02:30:22.922Z,5.8
2018-09-02T02:30:35.493Z,5.8
2018-09-02T02:30:47.892Z,5.8
2018-09-02T02:31:00.308Z,5.8
2018-09-02T02:31:12.764Z,5.8
2018-09-02T02:31:25.167Z,5.8
2018-09-02T02:31:37.625Z,5.8
2018-09-02T02:31:50.094Z,5.8
2018-09-02T02:32:02.514Z,5.8
2018-09-02T02:32:14.976Z,5.8
2018-09-02T02:32:27.380Z,5.8
2018-09-02T02:32:39.808Z,5.8
2018-09-02T02:32:52.241Z,5.8
2018-09-02T02:33:04.759Z,5.8
2018-09-02T02:33:17.155Z,5.8
2018-09-02T02:33:29.558Z,5.8
2018-09-02T02:33:41.959Z,5.8
2018-09-02T02:33:54.378Z,5.8
2018-09-02T02:34:06.908Z,5.8
2018-09-02T02:34:19.369Z,5.8
2018-09-02T02:34:31.780Z,5.8
2018-09-02T02:34:44.186Z,5.8
2018-09-02T02:34:56.598Z,5.8
2018-09-02T02:35:09.028Z,5.8
2018-09-02T02:35:21.430Z,5.8
2018-09-02T02:35:33.841Z,5.8
2018-09-02T02:35:46.244Z,5.8
2018-09-02T02:35:58.663Z,5.8
2018-09-02T02:36:11.546Z,5.8
2018-09-02T02:36:23.975Z,5.8
2018-09-02T02:36:36.399Z,5.8
2018-09-02T02:36:48.818Z,5.8
2018-09-02T02:37:01.295Z,5.8
2018-09-02T02:37:13.714Z,5.8
2018-09-02T02:37:26.124Z,5.8
2018-09-02T02:37:38.528Z,5.8
2018-09-02T02:37:50.967Z,5.79
2018-09-02T02:38:03.398Z,5.79
2018-09-02T02:38:15.827Z,5.79
2018-09-02T02:38:28.237Z,5.79
2018-09-02T02:38:40.646Z,5.79
2018-09-02T02:38:53.056Z,5.79
2018-09-02T02:39:05.482Z,5.79
2018-09-02T02:39:17.939Z,5.79
2018-09-02T02:39:30.372Z,5.79
2018-09-02T02:39:42.795Z,5.79
2018-09-02T02:39:55.218Z,5.79
2018-09-02T02:40:07.648Z,5.79
2018-09-02T02:40:20.063Z,5.79
2018-09-02T02:40:32.513Z,5.79
2018-09-02T02:40:44.932Z,5.79
2018-09-02T02:40:57.338Z,5.79
2018-09-02T02:41:09.727Z,5.79
2018-09-02T02:41:22.354Z,5.79
2018-09-02T02:41:34.789Z,5.79
2018-09-02T02:41:47.339Z,5.79
2018-09-02T02:41:59.748Z,5.79
2018-09-02T02:42:12.355Z,5.79
2018-09-02T02:42:24.776Z,5.79
2018-09-02T02:42:37.194Z,5.79
2018-09-02T02:42:49.608Z,5.79
2018-09-02T02:43:02.029Z,5.79
2018-09-02T02:43:14.433Z,5.79
2018-09-02T02:43:26.884Z,5.79
2018-09-02T02:43:39.284Z,5.79
2018-09-02T02:43:51.687Z,5.79
2018-09-02T02:44:04.108Z,5.79
2018-09-02T02:44:16.522Z,5.79
2018-09-02T02:44:28.932Z,5.79
2018-09-02T02:44:41.349Z,5.79
2018-09-02T02:44:53.759Z,5.79
2018-09-02T02:45:06.161Z,5.79
2018-09-02T02:45:18.588Z,5.79
2018-09-02T02:45:31.072Z,5.79
2018-09-02T02:45:43.476Z,5.79
2018-09-02T02:45:55.892Z,5.79
2018-09-02T02:46:08.307Z,5.79
2018-09-02T02:46:20.721Z,5.79
2018-09-02T02:46:33.143Z,5.79
2018-09-02T02:46:45.539Z,5.79